createdAt,value
2019-03-30T00:00:57.869Z,10.50
2019-03-30T00:03:29.083Z,10.50
2019-03-30T00:06:00.265Z,10.50
2019-03-30T00:08:31.470Z,10.40
2019-03-30T00:11:02.645Z,10.40
2019-03-30T00:13:33.837Z,10.40
2019-03-30T00:16:05.102Z,10.40
2019-03-30T00:18:36.288Z,10.40
2019-03-30T00:21:07.467Z,10.30
2019-03-30T00:23:38.673Z,10.30
2019-03-30T00:26:09.872Z,10.20
2019-03-30T00:28:41.037Z,10.20
2019-03-30T00:31:12.260Z,10.10
2019-03-30T00:33:43.435Z,10.10
2019-03-30T00:36:14.600Z,10.10
2019-03-30T00:38:45.813Z,10.00
2019-03-30T00:41:17.073Z,10.00
2019-03-30T00:43:48.275Z,10.00
2019-03-30T00:46:19.443Z,10.00
2019-03-30T00:48:51.136Z,10.00
2019-03-30T00:51:22.336Z,10.00
2019-03-30T00:53:53.493Z,10.00
2019-03-30T00:56:24.748Z,10.00
2019-03-30T00:58:55.988Z,10.00
2019-03-30T01:01:27.195Z,10.00
2019-03-30T01:03:58.386Z,9.90
2019-03-30T01:06:29.583Z,9.90
2019-03-30T01:09:00.776Z,9.90
2019-03-30T01:11:32.318Z,9.90
2019-03-30T01:14:03.514Z,9.90
2019-03-30T01:16:34.683Z,9.90
2019-03-30T01:19:06.459Z,9.90
2019-03-30T01:21:37.683Z,10.00
2019-03-30T01:24:08.863Z,10.00
2019-03-30T01:26:40.029Z,10.00
2019-03-30T01:29:11.213Z,10.00
2019-03-30T01:31:42.377Z,10.00
2019-03-30T01:34:13.586Z,10.00
2019-03-30T01:36:44.803Z,10.00
2019-03-30T01:39:15.981Z,10.00
2019-03-30T01:41:47.158Z,10.00
2019-03-30T01:44:18.362Z,10.00
2019-03-30T01:46:49.516Z,10.00
2019-03-30T01:49:20.692Z,10.00
2019-03-30T01:51:51.908Z,10.00
2019-03-30T01:54:23.079Z,10.00
2019-03-30T01:56:54.354Z,10.00
2019-03-30T01:59:25.570Z,9.90
2019-03-30T02:01:56.723Z,9.90
2019-03-30T02:04:27.879Z,9.90
2019-03-30T02:06:59.079Z,9.90
2019-03-30T02:09:30.265Z,9.80
2019-03-30T02:12:01.586Z,9.80
2019-03-30T02:14:32.776Z,9.80
2019-03-30T02:17:03.974Z,9.80
2019-03-30T02:19:35.158Z,9.70
2019-03-30T02:22:06.361Z,9.70
2019-03-30T02:24:37.549Z,9.70
2019-03-30T02:27:08.717Z,9.70
2019-03-30T02:29:39.908Z,9.60
2019-03-30T02:32:11.073Z,9.60
2019-03-30T02:34:42.247Z,9.60
2019-03-30T02:37:13.450Z,9.50
2019-03-30T02:39:44.637Z,9.50
2019-03-30T02:42:15.860Z,9.50
2019-03-30T02:44:47.085Z,9.50
2019-03-30T02:47:19.119Z,9.50
2019-03-30T02:49:50.358Z,9.50
2019-03-30T02:52:21.592Z,9.50
2019-03-30T02:54:52.742Z,9.50
2019-03-30T02:57:23.954Z,9.50
2019-03-30T02:59:55.151Z,9.40
2019-03-30T03:02:26.302Z,9.40
2019-03-30T03:04:57.533Z,9.50
2019-03-30T03:07:28.765Z,9.50
2019-03-30T03:09:59.949Z,9.50
2019-03-30T03:12:31.331Z,9.50
2019-03-30T03:15:02.510Z,9.50
2019-03-30T03:17:33.716Z,9.50
2019-03-30T03:20:05.459Z,9.50
2019-03-30T03:22:36.622Z,9.40
2019-03-30T03:25:08.180Z,9.40
2019-03-30T03:27:39.416Z,9.40
2019-03-30T03:30:11.397Z,9.40
2019-03-30T03:32:42.575Z,9.40
2019-03-30T03:35:14.005Z,9.40
2019-03-30T03:37:46.507Z,9.40
2019-03-30T03:40:18.191Z,9.40
2019-03-30T03:42:49.467Z,9.40
2019-03-30T03:45:20.638Z,9.40
2019-03-30T03:47:51.830Z,9.30
2019-03-30T03:50:45.532Z,9.30
2019-03-30T03:53:18.361Z,9.30
2019-03-30T03:55:49.613Z,9.30
2019-03-30T03:58:22.281Z,9.30
2019-03-30T04:00:55.230Z,9.40
2019-03-30T04:03:27.896Z,9.40
2019-03-30T04:06:03.141Z,9.40
2019-03-30T04:08:34.549Z,9.40
2019-03-30T04:11:06.916Z,9.40
2019-03-30T04:13:39.075Z,9.40
2019-03-30T04:16:10.877Z,9.40
2019-03-30T04:18:42.121Z,9.40
2019-03-30T04:21:13.416Z,9.50
2019-03-30T04:23:44.590Z,9.50
2019-03-30T04:26:15.762Z,9.50
2019-03-30T04:28:47.012Z,9.50
2019-03-30T04:31:18.187Z,9.60
2019-03-30T04:33:49.336Z,9.60
2019-03-30T04:36:20.541Z,9.60
2019-03-30T04:38:51.745Z,9.60
2019-03-30T04:41:22.913Z,9.60
2019-03-30T04:43:54.146Z,9.60
2019-03-30T04:46:25.457Z,9.60
2019-03-30T04:48:56.630Z,9.60
2019-03-30T04:51:27.835Z,9.50
2019-03-30T04:53:59.021Z,9.50
2019-03-30T04:56:30.187Z,9.50
2019-03-30T04:59:01.384Z,9.50
2019-03-30T05:01:32.574Z,9.50
2019-03-30T05:04:03.722Z,9.50
2019-03-30T05:06:34.947Z,9.40
2019-03-30T05:09:07.135Z,9.40
2019-03-30T05:11:38.331Z,9.40
2019-03-30T05:14:09.511Z,9.40
2019-03-30T05:16:40.714Z,9.40
2019-03-30T05:19:11.990Z,9.40
2019-03-30T05:21:43.212Z,9.50
2019-03-30T05:24:14.385Z,9.40
2019-03-30T05:26:45.575Z,9.40
2019-03-30T05:29:16.779Z,9.40
2019-03-30T05:31:48.029Z,9.40
2019-03-30T05:34:19.271Z,9.40
2019-03-30T05:36:50.499Z,9.40
2019-03-30T05:39:21.643Z,9.40
2019-03-30T05:41:52.832Z,9.40
2019-03-30T05:44:24.073Z,9.40
2019-03-30T05:46:55.239Z,9.40
2019-03-30T05:49:26.398Z,9.50
2019-03-30T05:51:57.612Z,9.50
2019-03-30T05:54:28.803Z,9.50
2019-03-30T05:57:00.051Z,9.50
2019-03-30T05:59:31.479Z,9.50
2019-03-30T06:02:02.658Z,9.50
2019-03-30T06:04:33.903Z,9.50
2019-03-30T06:07:05.115Z,9.60
2019-03-30T06:09:36.315Z,9.60
2019-03-30T06:12:07.493Z,9.60
2019-03-30T06:14:38.683Z,9.60
2019-03-30T06:17:09.829Z,9.60
2019-03-30T06:19:41.043Z,9.60
2019-03-30T06:22:12.273Z,9.60
2019-03-30T06:24:43.434Z,9.70
2019-03-30T06:27:14.638Z,9.70
2019-03-30T06:29:47.452Z,9.70
2019-03-30T06:32:18.626Z,9.70
2019-03-30T06:34:49.809Z,9.80
2019-03-30T06:37:20.993Z,9.80
2019-03-30T06:39:52.185Z,9.80
2019-03-30T06:42:23.335Z,9.80
2019-03-30T06:44:54.691Z,9.80
2019-03-30T06:47:25.955Z,9.90
2019-03-30T06:49:57.115Z,9.90
2019-03-30T06:52:28.328Z,10.00
2019-03-30T06:54:59.552Z,10.00
2019-03-30T06:57:30.812Z,10.10
2019-03-30T07:00:02.058Z,10.10
2019-03-30T07:02:33.468Z,10.10
2019-03-30T07:05:04.933Z,10.10
2019-03-30T07:07:36.532Z,10.20
2019-03-30T07:10:09.499Z,10.20
2019-03-30T07:12:44.272Z,10.20
2019-03-30T07:15:15.458Z,10.30
2019-03-30T07:17:50.416Z,10.20
2019-03-30T07:20:46.810Z,10.30
2019-03-30T07:23:18.358Z,10.30
2019-03-30T07:25:50.813Z,10.30
2019-03-30T07:28:22.075Z,10.40
2019-03-30T07:30:53.378Z,10.50
2019-03-30T07:33:24.568Z,10.50
2019-03-30T07:35:55.870Z,10.60
2019-03-30T07:38:27.054Z,10.70
2019-03-30T07:40:58.326Z,10.80
2019-03-30T07:43:29.545Z,11.00
2019-03-30T07:46:01.027Z,11.10
2019-03-30T07:48:32.275Z,11.20
2019-03-30T07:51:03.436Z,11.30
2019-03-30T07:53:44.498Z,11.40
2019-03-30T07:56:09.035Z,11.40
2019-03-30T07:58:40.302Z,11.50
2019-03-30T08:01:11.498Z,11.50
2019-03-30T08:03:42.982Z,11.60
2019-03-30T08:06:14.164Z,11.60
2019-03-30T08:08:45.406Z,11.70
2019-03-30T08:11:16.699Z,11.80
2019-03-30T08:13:47.926Z,12.00
2019-03-30T08:16:19.116Z,12.10
2019-03-30T08:18:50.313Z,12.20
2019-03-30T08:21:21.672Z,12.20
2019-03-30T08:23:52.886Z,12.30
2019-03-30T08:26:24.133Z,12.50
2019-03-30T08:28:55.472Z,12.50
2019-03-30T08:31:26.687Z,12.60
2019-03-30T08:33:57.911Z,12.70
2019-03-30T08:36:29.097Z,12.80
2019-03-30T08:39:00.253Z,12.90
2019-03-30T08:41:31.469Z,12.90
2019-03-30T08:44:02.840Z,13.00
2019-03-30T08:46:34.109Z,13.00
2019-03-30T08:49:05.334Z,13.10
2019-03-30T08:51:36.536Z,13.10
2019-03-30T08:54:07.940Z,13.20
2019-03-30T08:56:39.188Z,13.30
2019-03-30T08:59:10.463Z,13.40
2019-03-30T09:01:41.669Z,13.50
2019-03-30T09:04:12.945Z,13.70
2019-03-30T09:06:44.242Z,13.80
2019-03-30T09:09:15.521Z,14.00
2019-03-30T09:11:46.779Z,14.10
2019-03-30T09:14:17.937Z,14.20
2019-03-30T09:16:49.290Z,14.50
2019-03-30T09:19:20.511Z,15.00
2019-03-30T09:21:51.664Z,15.60
2019-03-30T09:24:22.936Z,16.20
2019-03-30T09:26:54.251Z,16.70
2019-03-30T09:29:25.482Z,17.00
2019-03-30T09:31:56.722Z,17.30
2019-03-30T09:34:28.192Z,17.50
2019-03-30T09:36:59.375Z,17.70
2019-03-30T09:39:30.568Z,17.90
2019-03-30T09:42:01.775Z,18.20
2019-03-30T09:44:33.039Z,18.40
2019-03-30T09:47:04.266Z,18.60
2019-03-30T09:49:35.463Z,18.90
2019-03-30T09:52:06.747Z,19.20
2019-03-30T09:54:37.949Z,19.70
2019-03-30T09:57:09.195Z,20.00
2019-03-30T09:59:40.428Z,20.20
2019-03-30T10:02:11.720Z,20.30
2019-03-30T10:04:42.998Z,20.30
2019-03-30T10:07:14.179Z,20.40
2019-03-30T10:09:47.328Z,20.50
2019-03-30T10:12:18.490Z,20.70
2019-03-30T10:14:49.855Z,20.90
2019-03-30T10:17:21.140Z,21.10
2019-03-30T10:20:03.623Z,21.30
2019-03-30T10:22:25.350Z,21.60
2019-03-30T10:24:58.454Z,21.90
2019-03-30T10:27:29.913Z,22.00
2019-03-30T10:30:01.096Z,22.00
2019-03-30T10:32:32.371Z,22.10
2019-03-30T10:35:03.818Z,22.40
2019-03-30T10:37:35.206Z,22.50
2019-03-30T10:40:07.486Z,22.40
2019-03-30T10:42:38.695Z,22.40
2019-03-30T10:45:11.449Z,22.60
2019-03-30T10:47:42.714Z,22.90
2019-03-30T10:50:14.265Z,23.00
2019-03-30T10:52:45.635Z,23.20
2019-03-30T10:55:16.863Z,23.30
2019-03-30T10:57:48.067Z,23.50
2019-03-30T11:00:40.347Z,23.60
2019-03-30T11:03:11.622Z,23.60
2019-03-30T11:05:42.898Z,23.50
2019-03-30T11:08:14.347Z,23.50
2019-03-30T11:10:45.537Z,23.60
2019-03-30T11:13:16.703Z,23.50
2019-03-30T11:15:47.877Z,23.40
2019-03-30T11:18:19.238Z,23.60
2019-03-30T11:20:50.465Z,23.80
2019-03-30T11:23:21.682Z,24.10
2019-03-30T11:25:52.905Z,24.00
2019-03-30T11:28:24.110Z,24.00
2019-03-30T11:30:55.307Z,24.20
2019-03-30T11:33:26.537Z,24.20
2019-03-30T11:35:57.741Z,24.30
2019-03-30T11:38:28.904Z,24.50
2019-03-30T11:41:00.233Z,24.80
2019-03-30T11:43:31.410Z,25.00
2019-03-30T11:46:02.678Z,25.00
2019-03-30T11:48:37.160Z,25.00
2019-03-30T11:51:06.973Z,24.90
2019-03-30T11:53:38.391Z,25.00
2019-03-30T11:56:09.853Z,24.90
2019-03-30T11:58:41.399Z,24.90
2019-03-30T12:01:13.615Z,24.90
2019-03-30T12:03:44.820Z,24.90
2019-03-30T12:06:16.063Z,24.80
2019-03-30T12:08:47.472Z,24.90
2019-03-30T12:11:18.697Z,25.10
2019-03-30T12:13:50.052Z,25.40
2019-03-30T12:16:21.309Z,25.40
2019-03-30T12:18:52.553Z,25.30
2019-03-30T12:21:23.773Z,25.30
2019-03-30T12:23:54.972Z,25.40
2019-03-30T12:26:26.139Z,25.40
2019-03-30T12:28:57.310Z,25.40
2019-03-30T12:31:28.488Z,25.20
2019-03-30T12:33:59.693Z,25.30
2019-03-30T12:36:31.073Z,25.70
2019-03-30T12:39:03.775Z,25.60
2019-03-30T12:41:35.065Z,25.40
2019-03-30T12:44:06.716Z,25.40
2019-03-30T12:46:42.434Z,25.70
2019-03-30T12:49:14.831Z,26.40
2019-03-30T12:51:46.161Z,26.50
2019-03-30T12:54:17.553Z,26.00
2019-03-30T12:56:49.089Z,25.20
2019-03-30T12:59:20.527Z,24.60
2019-03-30T13:01:51.895Z,24.70
2019-03-30T13:04:23.318Z,24.80
2019-03-30T13:06:54.900Z,25.10
2019-03-30T13:09:26.169Z,25.40
2019-03-30T13:11:57.316Z,25.50
2019-03-30T13:14:28.631Z,25.20
2019-03-30T13:16:59.802Z,25.00
2019-03-30T13:19:30.984Z,25.20
2019-03-30T13:22:02.225Z,25.50
2019-03-30T13:24:33.764Z,25.70
2019-03-30T13:27:04.955Z,25.60
2019-03-30T13:29:36.185Z,25.50
2019-03-30T13:32:07.363Z,25.60
2019-03-30T13:34:38.526Z,25.60
2019-03-30T13:37:19.354Z,24.80
2019-03-30T13:39:50.570Z,24.40
2019-03-30T13:42:21.803Z,24.80
2019-03-30T13:44:52.993Z,25.10
2019-03-30T13:47:24.179Z,25.00
2019-03-30T13:49:55.481Z,25.10
2019-03-30T13:52:26.721Z,25.30
2019-03-30T13:54:57.919Z,25.40
2019-03-30T13:57:29.116Z,25.70
2019-03-30T14:00:00.395Z,25.40
2019-03-30T14:02:31.581Z,25.30
2019-03-30T14:05:02.747Z,25.60
2019-03-30T14:07:33.998Z,25.80
2019-03-30T14:10:05.742Z,26.00
2019-03-30T14:12:37.350Z,25.50
2019-03-30T14:15:09.495Z,25.20
2019-03-30T14:17:41.431Z,24.60
2019-03-30T14:20:12.829Z,24.10
2019-03-30T14:22:44.042Z,23.60
2019-03-30T14:25:15.222Z,23.10
2019-03-30T14:27:46.462Z,23.00
2019-03-30T14:30:17.881Z,22.90
2019-03-30T14:32:49.036Z,22.90
2019-03-30T14:35:20.222Z,22.50
2019-03-30T14:37:51.444Z,22.50
2019-03-30T14:40:22.665Z,22.50
2019-03-30T14:42:53.867Z,22.20
2019-03-30T14:45:25.184Z,22.00
2019-03-30T14:47:58.020Z,22.00
2019-03-30T14:50:29.558Z,22.10
2019-03-30T14:53:01.209Z,22.20
2019-03-30T14:55:32.369Z,22.30
2019-03-30T14:58:03.725Z,22.50
2019-03-30T15:00:34.998Z,22.60
2019-03-30T15:03:06.319Z,22.60
2019-03-30T15:05:37.717Z,22.60
2019-03-30T15:08:08.903Z,22.60
2019-03-30T15:10:40.110Z,22.70
2019-03-30T15:13:11.361Z,22.70
2019-03-30T15:15:42.602Z,22.70
2019-03-30T15:18:13.831Z,22.50
2019-03-30T15:20:45.141Z,22.40
2019-03-30T15:23:16.310Z,22.40
2019-03-30T15:25:47.526Z,22.30
2019-03-30T15:28:18.832Z,22.30
2019-03-30T15:30:50.027Z,22.40
2019-03-30T15:33:21.306Z,22.60
2019-03-30T15:35:52.520Z,22.80
2019-03-30T15:38:23.793Z,23.10
2019-03-30T15:40:55.795Z,23.20
2019-03-30T15:43:38.142Z,23.30
2019-03-30T15:46:00.442Z,23.30
2019-03-30T15:48:31.696Z,23.10
2019-03-30T15:51:02.888Z,23.20
2019-03-30T15:53:34.103Z,23.00
2019-03-30T15:56:05.375Z,22.70
2019-03-30T15:58:36.812Z,22.60
2019-03-30T16:01:08.010Z,22.60
2019-03-30T16:03:39.279Z,22.60
2019-03-30T16:06:10.480Z,22.40
2019-03-30T16:08:41.706Z,22.30
2019-03-30T16:11:12.921Z,22.20
2019-03-30T16:13:44.152Z,22.00
2019-03-30T16:16:15.334Z,21.70
2019-03-30T16:18:46.705Z,21.50
2019-03-30T16:21:17.916Z,21.20
2019-03-30T16:23:49.169Z,21.10
2019-03-30T16:26:20.357Z,21.10
2019-03-30T16:28:51.544Z,21.00
2019-03-30T16:31:22.864Z,20.90
2019-03-30T16:33:54.055Z,20.80
2019-03-30T16:36:25.302Z,20.70
2019-03-30T16:38:56.544Z,20.40
2019-03-30T16:41:27.879Z,20.00
2019-03-30T16:43:59.147Z,19.70
2019-03-30T16:46:30.348Z,19.50
2019-03-30T16:49:01.529Z,19.10
2019-03-30T16:51:32.876Z,18.70
2019-03-30T16:54:04.111Z,18.60
2019-03-30T16:56:35.340Z,18.50
2019-03-30T16:59:07.044Z,18.40
2019-03-30T17:01:38.380Z,18.30
2019-03-30T17:04:09.615Z,18.20
2019-03-30T17:06:40.809Z,18.20
2019-03-30T17:09:12.152Z,18.20
2019-03-30T17:11:43.348Z,18.20
2019-03-30T17:14:14.607Z,18.10
2019-03-30T17:16:45.831Z,18.00
2019-03-30T17:19:17.026Z,18.00
2019-03-30T17:21:48.358Z,17.90
2019-03-30T17:24:19.563Z,17.80
2019-03-30T17:26:50.843Z,17.80
2019-03-30T17:29:22.088Z,17.70
2019-03-30T17:31:53.316Z,17.70
2019-03-30T17:34:24.519Z,17.60
2019-03-30T17:36:55.801Z,17.70
2019-03-30T17:39:27.027Z,17.60
2019-03-30T17:41:58.295Z,17.60
2019-03-30T17:44:29.549Z,17.60
2019-03-30T17:47:00.744Z,17.50
2019-03-30T17:49:31.965Z,17.40
2019-03-30T17:52:03.307Z,17.40
2019-03-30T17:54:34.563Z,17.40
2019-03-30T17:57:05.781Z,17.40
2019-03-30T17:59:37.041Z,17.40
2019-03-30T18:02:08.280Z,17.30
2019-03-30T18:04:39.877Z,17.30
2019-03-30T18:07:13.638Z,17.20
2019-03-30T18:09:44.164Z,17.20
2019-03-30T18:12:15.430Z,17.00
2019-03-30T18:14:46.671Z,16.80
2019-03-30T18:17:17.923Z,16.60
2019-03-30T18:19:49.184Z,16.60
2019-03-30T18:22:20.520Z,16.50
2019-03-30T18:24:51.773Z,16.50
2019-03-30T18:27:22.989Z,16.50
2019-03-30T18:29:54.201Z,16.50
2019-03-30T18:32:25.634Z,16.50
2019-03-30T18:34:57.010Z,16.40
2019-03-30T18:37:29.866Z,16.40
2019-03-30T18:40:01.162Z,16.30
2019-03-30T18:42:32.510Z,16.30
2019-03-30T18:45:04.505Z,16.30
2019-03-30T18:47:35.699Z,16.40
2019-03-30T18:50:07.778Z,16.40
2019-03-30T18:52:39.220Z,16.40
2019-03-30T18:55:13.455Z,16.40
2019-03-30T18:57:44.748Z,16.40
2019-03-30T19:00:20.938Z,16.40
2019-03-30T19:02:52.199Z,16.30
2019-03-30T19:05:23.515Z,16.30
2019-03-30T19:07:54.914Z,16.30
2019-03-30T19:10:26.169Z,16.20
2019-03-30T19:12:57.512Z,16.20
2019-03-30T19:15:28.911Z,16.20
2019-03-30T19:18:00.097Z,16.20
2019-03-30T19:20:31.338Z,16.20
2019-03-30T19:23:02.673Z,16.30
2019-03-30T19:25:33.925Z,16.30
2019-03-30T19:28:05.216Z,16.20
2019-03-30T19:30:36.391Z,16.20
2019-03-30T19:33:07.673Z,16.10
2019-03-30T19:35:38.923Z,16.10
2019-03-30T19:38:11.013Z,16.00
2019-03-30T19:40:42.583Z,16.00
2019-03-30T19:43:13.843Z,15.90
2019-03-30T19:45:45.089Z,15.90
2019-03-30T19:48:16.366Z,15.90
2019-03-30T19:50:47.841Z,15.90
2019-03-30T19:53:19.061Z,15.90
2019-03-30T19:55:50.296Z,15.90
2019-03-30T19:58:21.543Z,15.80
2019-03-30T20:00:52.749Z,15.90
2019-03-30T20:03:23.956Z,15.80
2019-03-30T20:05:55.184Z,15.80
2019-03-30T20:08:26.504Z,15.80
2019-03-30T20:10:57.694Z,15.80
2019-03-30T20:13:28.926Z,15.80
2019-03-30T20:16:00.079Z,15.80
2019-03-30T20:18:31.287Z,15.80
2019-03-30T20:21:02.598Z,15.70
2019-03-30T20:23:33.879Z,15.70
2019-03-30T20:26:05.105Z,15.60
2019-03-30T20:28:36.460Z,15.60
2019-03-30T20:31:07.694Z,15.60
2019-03-30T20:33:38.889Z,15.60
2019-03-30T20:36:10.165Z,15.60
2019-03-30T20:38:41.403Z,15.60
2019-03-30T20:41:12.582Z,15.60
2019-03-30T20:46:27.819Z,15.50
2019-03-30T20:48:59.231Z,15.50
2019-03-30T20:51:30.549Z,15.40
2019-03-30T20:54:01.790Z,15.40
2019-03-30T20:56:32.943Z,15.30
2019-03-30T20:59:04.231Z,15.30
2019-03-30T21:01:38.262Z,15.30
2019-03-30T21:04:08.370Z,15.20
2019-03-30T21:06:39.670Z,15.20
2019-03-30T21:09:10.903Z,15.20
2019-03-30T21:11:42.155Z,15.00
2019-03-30T21:14:20.861Z,14.90
2019-03-30T21:16:52.118Z,14.90
2019-03-30T21:19:23.382Z,14.80
2019-03-30T21:21:54.668Z,14.70
2019-03-30T21:24:25.949Z,14.60
2019-03-30T21:26:57.161Z,14.60
2019-03-30T21:29:28.378Z,14.60
2019-03-30T21:31:59.607Z,14.50
2019-03-30T21:34:30.930Z,14.50
2019-03-30T21:37:02.168Z,14.50
2019-03-30T21:39:33.436Z,14.40
2019-03-30T21:42:04.665Z,14.40
2019-03-30T21:44:36.294Z,14.40
2019-03-30T21:47:07.550Z,14.30
2019-03-30T21:49:38.802Z,14.30
2019-03-30T21:52:10.291Z,14.10
2019-03-30T21:54:41.457Z,14.10
2019-03-30T21:57:12.665Z,14.10
2019-03-30T21:59:43.913Z,14.00
2019-03-30T22:02:15.301Z,13.90
2019-03-30T22:04:46.516Z,13.80
2019-03-30T22:07:17.852Z,13.80
2019-03-30T22:09:49.719Z,13.70
2019-03-30T22:12:20.943Z,13.60
2019-03-30T22:14:52.128Z,13.60
2019-03-30T22:17:23.508Z,13.50
2019-03-30T22:19:54.771Z,13.50
2019-03-30T22:22:26.009Z,13.50
2019-03-30T22:24:57.349Z,13.50
2019-03-30T22:27:28.517Z,13.50
2019-03-30T22:29:59.743Z,13.40
2019-03-30T22:32:30.948Z,13.30
2019-03-30T22:35:02.331Z,13.30
2019-03-30T22:37:33.659Z,13.30
2019-03-30T22:40:05.810Z,13.20
2019-03-30T22:42:37.188Z,13.20
2019-03-30T22:45:09.253Z,13.20
2019-03-30T22:47:40.452Z,13.10
2019-03-30T22:50:12.353Z,13.10
2019-03-30T22:52:43.564Z,13.10
2019-03-30T22:55:14.815Z,13.00
2019-03-30T22:57:46.066Z,12.90
2019-03-30T23:00:39.617Z,12.90
2019-03-30T23:03:11.407Z,12.80
2019-03-30T23:05:42.793Z,12.80
2019-03-30T23:08:13.993Z,12.70
2019-03-30T23:10:45.261Z,12.70
2019-03-30T23:13:16.571Z,12.70
2019-03-30T23:15:47.819Z,12.70
2019-03-30T23:18:19.169Z,12.70
2019-03-30T23:20:50.368Z,12.70
2019-03-30T23:23:21.589Z,12.70
2019-03-30T23:25:52.864Z,12.80
2019-03-30T23:28:24.081Z,12.70
2019-03-30T23:30:55.326Z,12.70
2019-03-30T23:33:26.593Z,12.60
2019-03-30T23:35:57.785Z,12.50
2019-03-30T23:38:28.957Z,12.50
2019-03-30T23:41:00.265Z,12.50
2019-03-30T23:43:31.497Z,12.40
2019-03-30T23:46:02.785Z,12.40
2019-03-30T23:48:34.014Z,12.30
2019-03-30T23:51:05.214Z,12.30
2019-03-30T23:53:36.451Z,12.30
2019-03-30T23:56:23.987Z,12.30
2019-03-30T23:58:55.336Z,12.30
